Aviation Digital Data Service (ADDS)

Output produced by METARs form (1209 UTC 19 January 2019)
found at http://www.aviationweather.gov/metar/data/
 
METAR text: KAUS 191153Z 31014G26KT 10SM SCT039 11/02 A2997 RMK AO2 PK WND 31037/1130 PRESRR SLP147 70001 T01060017 10189 20106 51052
Conditions at: KAUS (AUSTIN , TX, US) observed 1153 UTC 19 January 2019
Temperature: 10.6°C (51°F)
Dewpoint: 1.7°C (35°F) [RH = 54%]
Pressure (altimeter): 29.97 inches Hg (1015.0 mb)
[Sea-level pressure: 1014.7 mb]
Winds: from the NW (310 degrees) at 16 MPH (14 knots; 7.2 m/s)
gusting to 30 MPH (26 knots; 13.4 m/s)
Visibility: 10 or more miles (16+ km)
Ceiling: at least 12,000 feet AGL
Clouds: scattered clouds at 3900 feet AGL
Weather: no significant weather observed at this time

METAR text: KAUS 191053Z 31022G37KT 10SM CLR 11/02 A2991 RMK AO2 PK WND 31037/1053 SLP125 T01110017
Conditions at: KAUS (AUSTIN , TX, US) observed 1053 UTC 19 January 2019
Temperature: 11.1°C (52°F)
Dewpoint: 1.7°C (35°F) [RH = 52%]
Pressure (altimeter): 29.91 inches Hg (1013.0 mb)
[Sea-level pressure: 1012.5 mb]
Winds: from the NW (310 degrees) at 25 MPH (22 knots; 11.3 m/s)
gusting to 43 MPH (37 knots; 19.0 m/s)
Visibility: 10 or more miles (16+ km)
Ceiling: at least 12,000 feet AGL
Clouds: sky clear below 12,000 feet AGL
Weather: no significant weather observed at this time

METAR text: KAUS 190953Z 32017G29KT 10SM FEW100 12/02 A2988 RMK AO2 PK WND 31041/0902 SLP117 T01220022
Conditions at: KAUS (AUSTIN , TX, US) observed 0953 UTC 19 January 2019
Temperature: 12.2°C (54°F)
Dewpoint: 2.2°C (36°F) [RH = 50%]
Pressure (altimeter): 29.88 inches Hg (1011.9 mb)
[Sea-level pressure: 1011.7 mb]
Winds: from the NW (320 degrees) at 20 MPH (17 knots; 8.7 m/s)
gusting to 33 MPH (29 knots; 14.9 m/s)
Visibility: 10 or more miles (16+ km)
Ceiling: at least 12,000 feet AGL
Clouds: few clouds at 10000 feet AGL
Weather: no significant weather observed at this time

METAR text: KAUS 190853Z 30011G17KT 10SM BKN100 18/04 A2981 RMK AO2 SLP091 T01830039 55009
Conditions at: KAUS (AUSTIN , TX, US) observed 0853 UTC 19 January 2019
Temperature: 18.3°C (65°F)
Dewpoint: 3.9°C (39°F) [RH = 38%]
Pressure (altimeter): 29.81 inches Hg (1009.6 mb)
[Sea-level pressure: 1009.1 mb]
Winds: from the WNW (300 degrees) at 13 MPH (11 knots; 5.7 m/s)
gusting to 20 MPH (17 knots; 8.7 m/s)
Visibility: 10 or more miles (16+ km)
Ceiling: 10000 feet AGL
Clouds: broken clouds at 10000 feet AGL
Weather: no significant weather observed at this time

METAR text: KAUS 190753Z 28009KT 10SM BKN095 18/08 A2980 RMK AO2 SLP087 T01780083
Conditions at: KAUS (AUSTIN , TX, US) observed 0753 UTC 19 January 2019
Temperature: 17.8°C (64°F)
Dewpoint: 8.3°C (47°F) [RH = 54%]
Pressure (altimeter): 29.80 inches Hg (1009.2 mb)
[Sea-level pressure: 1008.7 mb]
Winds: from the W (280 degrees) at 10 MPH (9 knots; 4.6 m/s)
Visibility: 10 or more miles (16+ km)
Ceiling: 9500 feet AGL
Clouds: broken clouds at 9500 feet AGL
Weather: no significant weather observed at this time

METAR text: KAUS 190653Z 29007KT 250V320 10SM OVC100 18/14 A2984 RMK AO2 SLP100 OCNL LTG DSNT E-SE T01830144
Conditions at: KAUS (AUSTIN , TX, US) observed 0653 UTC 19 January 2019
Temperature: 18.3°C (65°F)
Dewpoint: 14.4°C (58°F) [RH = 78%]
Pressure (altimeter): 29.84 inches Hg (1010.6 mb)
[Sea-level pressure: 1010.0 mb]
Winds: from the WNW (290 degrees) at 8 MPH (7 knots; 3.6 m/s)
Visibility: 10 or more miles (16+ km)
Ceiling: 10000 feet AGL
Clouds: overcast cloud deck at 10000 feet AGL
Weather: no significant weather observed at this time

METAR text: KAUS 190553Z 27007KT 10SM SCT100 19/16 A2984 RMK AO2 SLP100 T01890161 10189 20167 401890083 53022
Conditions at: KAUS (AUSTIN , TX, US) observed 0553 UTC 19 January 2019
Temperature: 18.9°C (66°F)
Dewpoint: 16.1°C (61°F) [RH = 84%]
Pressure (altimeter): 29.84 inches Hg (1010.6 mb)
[Sea-level pressure: 1010.0 mb]
Winds: from the W (270 degrees) at 8 MPH (7 knots; 3.6 m/s)
Visibility: 10 or more miles (16+ km)
Ceiling: at least 12,000 feet AGL
Clouds: scattered clouds at 10000 feet AGL
Weather: no significant weather observed at this time

METAR text: KAUS 190453Z 25008KT 8SM FEW024 BKN110 18/16 A2982 RMK AO2 SLP093 T01830161
Conditions at: KAUS (AUSTIN , TX, US) observed 0453 UTC 19 January 2019
Temperature: 18.3°C (65°F)
Dewpoint: 16.1°C (61°F) [RH = 87%]
Pressure (altimeter): 29.82 inches Hg (1009.9 mb)
[Sea-level pressure: 1009.3 mb]
Winds: from the WSW (250 degrees) at 9 MPH (8 knots; 4.1 m/s)
Visibility: 8 miles (13 km)
Ceiling: 11000 feet AGL
Clouds: few clouds at 2400 feet AGL
broken clouds at 11000 feet AGL
Weather: no significant weather observed at this time

METAR text: KAUS 190353Z 22012KT 6SM BR CLR 18/16 A2977 RMK AO2 SLP076 T01830161
Conditions at: KAUS (AUSTIN , TX, US) observed 0353 UTC 19 January 2019
Temperature: 18.3°C (65°F)
Dewpoint: 16.1°C (61°F) [RH = 87%]
Pressure (altimeter): 29.77 inches Hg (1008.2 mb)
[Sea-level pressure: 1007.6 mb]
Winds: from the SW (220 degrees) at 14 MPH (12 knots; 6.2 m/s)
Visibility: 6 miles (10 km)
Ceiling: at least 12,000 feet AGL
Clouds: sky clear below 12,000 feet AGL
Weather: BR  (mist)

METAR text: KAUS 190344Z 22011KT 6SM BR SCT004 18/16 A2977 RMK AO2 T01780161
Conditions at: KAUS (AUSTIN , TX, US) observed 0344 UTC 19 January 2019
Temperature: 17.8°C (64°F)
Dewpoint: 16.1°C (61°F) [RH = 90%]
Pressure (altimeter): 29.77 inches Hg (1008.2 mb)
Winds: from the SW (220 degrees) at 13 MPH (11 knots; 5.7 m/s)
Visibility: 6 miles (10 km)
Ceiling: at least 12,000 feet AGL
Clouds: scattered clouds at 400 feet AGL
Weather: BR  (mist)

METAR text: KAUS 190253Z 21009KT 5SM BR BKN005 18/17 A2977 RMK AO2 SLP079 T01780167 52010
Conditions at: KAUS (AUSTIN , TX, US) observed 0253 UTC 19 January 2019
Temperature: 17.8°C (64°F)
Dewpoint: 16.7°C (62°F) [RH = 93%]
Pressure (altimeter): 29.77 inches Hg (1008.2 mb)
[Sea-level pressure: 1007.9 mb]
Winds: from the SSW (210 degrees) at 10 MPH (9 knots; 4.6 m/s)
Visibility: 5 miles ( 8 km)
Ceiling: 500 feet AGL
Clouds: broken clouds at 500 feet AGL
Weather: BR  (mist)

METAR text: KAUS 190153Z 20012KT 5SM BR OVC006 18/17 A2975 RMK AO2 SLP071 T01830167
Conditions at: KAUS (AUSTIN , TX, US) observed 0153 UTC 19 January 2019
Temperature: 18.3°C (65°F)
Dewpoint: 16.7°C (62°F) [RH = 90%]
Pressure (altimeter): 29.75 inches Hg (1007.5 mb)
[Sea-level pressure: 1007.1 mb]
Winds: from the SSW (200 degrees) at 14 MPH (12 knots; 6.2 m/s)
Visibility: 5 miles ( 8 km)
Ceiling: 600 feet AGL
Clouds: overcast cloud deck at 600 feet AGL
Weather: BR  (mist)

METAR text: KAUS 190053Z 22011KT 6SM BR OVC006 18/17 A2977 RMK AO2 SLP076 T01830167
Conditions at: KAUS (AUSTIN , TX, US) observed 0053 UTC 19 January 2019
Temperature: 18.3°C (65°F)
Dewpoint: 16.7°C (62°F) [RH = 90%]
Pressure (altimeter): 29.77 inches Hg (1008.2 mb)
[Sea-level pressure: 1007.6 mb]
Winds: from the SW (220 degrees) at 13 MPH (11 knots; 5.7 m/s)
Visibility: 6 miles (10 km)
Ceiling: 600 feet AGL
Clouds: overcast cloud deck at 600 feet AGL
Weather: BR  (mist)

METAR text: KAUS 190019Z 21010KT 5SM BR OVC005 18/17 A2975 RMK AO2 T01830167
Conditions at: KAUS (AUSTIN , TX, US) observed 0019 UTC 19 January 2019
Temperature: 18.3°C (65°F)
Dewpoint: 16.7°C (62°F) [RH = 90%]
Pressure (altimeter): 29.75 inches Hg (1007.5 mb)
Winds: from the SSW (210 degrees) at 12 MPH (10 knots; 5.1 m/s)
Visibility: 5 miles ( 8 km)
Ceiling: 500 feet AGL
Clouds: overcast cloud deck at 500 feet AGL
Weather: BR  (mist)

METAR text: KAUS 182353Z 20015G18KT 1SM R17L/P6000FT BR OVC004 18/17 A2974 RMK AO2 SFC VIS 3 SLP069 60001 T01830172 10183 20167 56026
Conditions at: KAUS (AUSTIN , TX, US) observed 2353 UTC 18 January 2019
Temperature: 18.3°C (65°F)
Dewpoint: 17.2°C (63°F) [RH = 93%]
Pressure (altimeter): 29.74 inches Hg (1007.2 mb)
[Sea-level pressure: 1006.9 mb]
Winds: from the SSW (200 degrees) at 17 MPH (15 knots; 7.7 m/s)
gusting to 21 MPH (18 knots; 9.3 m/s)
Visibility: 1.00 miles (1.61 km)
Ceiling: 400 feet AGL
Clouds: overcast cloud deck at 400 feet AGL
Weather: BR  (mist)

METAR text: KAUS 182327Z 20011KT 1SM R17L/P6000FT BR OVC004 18/17 A2975 RMK AO2 SFC VIS 3 T01830172
Conditions at: KAUS (AUSTIN , TX, US) observed 2327 UTC 18 January 2019
Temperature: 18.3°C (65°F)
Dewpoint: 17.2°C (63°F) [RH = 93%]
Pressure (altimeter): 29.75 inches Hg (1007.5 mb)
Winds: from the SSW (200 degrees) at 13 MPH (11 knots; 5.7 m/s)
Visibility: 1.00 miles (1.61 km)
Ceiling: 400 feet AGL
Clouds: overcast cloud deck at 400 feet AGL
Weather: BR  (mist)

METAR text: KAUS 182253Z 19012KT 5SM BR OVC005 18/17 A2976 RMK AO2 DZE01 PRESFR SLP074 P0000 T01830167
Conditions at: KAUS (AUSTIN , TX, US) observed 2253 UTC 18 January 2019
Temperature: 18.3°C (65°F)
Dewpoint: 16.7°C (62°F) [RH = 90%]
Pressure (altimeter): 29.76 inches Hg (1007.9 mb)
[Sea-level pressure: 1007.4 mb]
Winds: from the S (190 degrees) at 14 MPH (12 knots; 6.2 m/s)
Visibility: 5 miles ( 8 km)
Ceiling: 500 feet AGL
Clouds: overcast cloud deck at 500 feet AGL
Weather: BR  (mist)

METAR text: KAUS 182241Z 19013KT 4SM BR OVC006 18/17 A2978 RMK AO2 DZE01 P0000 T01830167
Conditions at: KAUS (AUSTIN , TX, US) observed 2241 UTC 18 January 2019
Temperature: 18.3°C (65°F)
Dewpoint: 16.7°C (62°F) [RH = 90%]
Pressure (altimeter): 29.78 inches Hg (1008.5 mb)
Winds: from the S (190 degrees) at 15 MPH (13 knots; 6.7 m/s)
Visibility: 4 miles ( 6 km)
Ceiling: 600 feet AGL
Clouds: overcast cloud deck at 600 feet AGL
Weather: BR  (mist)

METAR text: KAUS 182221Z 20011KT 2 1/2SM BR BKN006 OVC011 18/17 A2980 RMK AO2 TWR VIS 5 DZE01 P0000 T01830167
Conditions at: KAUS (AUSTIN , TX, US) observed 2221 UTC 18 January 2019
Temperature: 18.3°C (65°F)
Dewpoint: 16.7°C (62°F) [RH = 90%]
Pressure (altimeter): 29.80 inches Hg (1009.2 mb)
Winds: from the SSW (200 degrees) at 13 MPH (11 knots; 5.7 m/s)
Visibility: 2.50 miles (4.02 km)
Ceiling: 600 feet AGL
Clouds: broken clouds at 600 feet AGL
overcast cloud deck at 1100 feet AGL
Weather: BR  (mist)

METAR text: KAUS 182153Z 20011KT 3/4SM R17L/6000VP6000FT -DZ BR OVC004 18/17 A2981 RMK AO2 SFC VIS 1 DZB29 SLP091 P0000 T01780167
Conditions at: KAUS (AUSTIN , TX, US) observed 2153 UTC 18 January 2019
Temperature: 17.8°C (64°F)
Dewpoint: 16.7°C (62°F) [RH = 93%]
Pressure (altimeter): 29.81 inches Hg (1009.6 mb)
[Sea-level pressure: 1009.1 mb]
Winds: from the SSW (200 degrees) at 13 MPH (11 knots; 5.7 m/s)
Visibility: 0.75 miles (1.21 km)
Ceiling: 400 feet AGL
Clouds: overcast cloud deck at 400 feet AGL
Weather: -DZ BR  (light drizzle, mist)

METAR text: KAUS 182053Z 20009KT 3/4SM R17L/P6000FT BR OVC003 18/16 A2982 RMK AO2 SFC VIS 1 3/4 SLP096 60001 T01780161 56050
Conditions at: KAUS (AUSTIN , TX, US) observed 2053 UTC 18 January 2019
Temperature: 17.8°C (64°F)
Dewpoint: 16.1°C (61°F) [RH = 90%]
Pressure (altimeter): 29.82 inches Hg (1009.9 mb)
[Sea-level pressure: 1009.6 mb]
Winds: from the SSW (200 degrees) at 10 MPH (9 knots; 4.6 m/s)
Visibility: 0.75 miles (1.21 km)
Ceiling: 300 feet AGL
Clouds: overcast cloud deck at 300 feet AGL
Weather: BR  (mist)

METAR text: KAUS 182037Z 20009KT 1SM R17L/P6000FT BR OVC003 17/16 A2983 RMK AO2 SFC VIS 2 T01720161
Conditions at: KAUS (AUSTIN , TX, US) observed 2037 UTC 18 January 2019
Temperature: 17.2°C (63°F)
Dewpoint: 16.1°C (61°F) [RH = 93%]
Pressure (altimeter): 29.83 inches Hg (1010.2 mb)
Winds: from the SSW (200 degrees) at 10 MPH (9 knots; 4.6 m/s)
Visibility: 1.00 miles (1.61 km)
Ceiling: 300 feet AGL
Clouds: overcast cloud deck at 300 feet AGL
Weather: BR  (mist)

METAR text: KAUS 182026Z 20010KT 2SM BR OVC003 17/16 A2983 RMK AO2 SFC VIS 3 T01720161
Conditions at: KAUS (AUSTIN , TX, US) observed 2026 UTC 18 January 2019
Temperature: 17.2°C (63°F)
Dewpoint: 16.1°C (61°F) [RH = 93%]
Pressure (altimeter): 29.83 inches Hg (1010.2 mb)
Winds: from the SSW (200 degrees) at 12 MPH (10 knots; 5.1 m/s)
Visibility: 2.00 miles (3.22 km)
Ceiling: 300 feet AGL
Clouds: overcast cloud deck at 300 feet AGL
Weather: BR  (mist)

METAR text: KAUS 181953Z 19014KT 7SM OVC004 17/16 A2984 RMK AO2 SLP102 T01720156
Conditions at: KAUS (AUSTIN , TX, US) observed 1953 UTC 18 January 2019
Temperature: 17.2°C (63°F)
Dewpoint: 15.6°C (60°F) [RH = 90%]
Pressure (altimeter): 29.84 inches Hg (1010.6 mb)
[Sea-level pressure: 1010.2 mb]
Winds: from the S (190 degrees) at 16 MPH (14 knots; 7.2 m/s)
Visibility: 7 miles (11 km)
Ceiling: 400 feet AGL
Clouds: overcast cloud deck at 400 feet AGL
Weather: no significant weather observed at this time

METAR text: KAUS 181937Z 19012KT 7SM OVC004 17/16 A2985 RMK AO2 T01720156
Conditions at: KAUS (AUSTIN , TX, US) observed 1937 UTC 18 January 2019
Temperature: 17.2°C (63°F)
Dewpoint: 15.6°C (60°F) [RH = 90%]
Pressure (altimeter): 29.85 inches Hg (1010.9 mb)
Winds: from the S (190 degrees) at 14 MPH (12 knots; 6.2 m/s)
Visibility: 7 miles (11 km)
Ceiling: 400 feet AGL
Clouds: overcast cloud deck at 400 feet AGL
Weather: no significant weather observed at this time

METAR text: KAUS 181853Z 18011KT 10SM OVC005 17/15 A2989 RMK AO2 DZE45 SLP122 P0001 T01670150
Conditions at: KAUS (AUSTIN , TX, US) observed 1853 UTC 18 January 2019
Temperature: 16.7°C (62°F)
Dewpoint: 15.0°C (59°F) [RH = 90%]
Pressure (altimeter): 29.89 inches Hg (1012.3 mb)
[Sea-level pressure: 1012.2 mb]
Winds: from the S (180 degrees) at 13 MPH (11 knots; 5.7 m/s)
Visibility: 10 or more miles (16+ km)
Ceiling: 500 feet AGL
Clouds: overcast cloud deck at 500 feet AGL
Weather: no significant weather observed at this time

METAR text: KAUS 181753Z 18006KT 3SM -DZ BR OVC005 16/15 A2997 RMK AO2 DZB27 SLP150 P0000 60000 T01610150 10161 20133 58011
Conditions at: KAUS (AUSTIN , TX, US) observed 1753 UTC 18 January 2019
Temperature: 16.1°C (61°F)
Dewpoint: 15.0°C (59°F) [RH = 93%]
Pressure (altimeter): 29.97 inches Hg (1015.0 mb)
[Sea-level pressure: 1015.0 mb]
Winds: from the S (180 degrees) at 7 MPH (6 knots; 3.1 m/s)
Visibility: 3 miles ( 5 km)
Ceiling: 500 feet AGL
Clouds: overcast cloud deck at 500 feet AGL
Weather: -DZ BR  (light drizzle, mist)

METAR text: KAUS 181653Z 20005KT 5SM BR OVC005 16/14 A3001 RMK AO2 DZE25 SLP162 P0000 T01560144
Conditions at: KAUS (AUSTIN , TX, US) observed 1653 UTC 18 January 2019
Temperature: 15.6°C (60°F)
Dewpoint: 14.4°C (58°F) [RH = 93%]
Pressure (altimeter): 30.01 inches Hg (1016.3 mb)
[Sea-level pressure: 1016.2 mb]
Winds: from the SSW (200 degrees) at 6 MPH (5 knots; 2.6 m/s)
Visibility: 5 miles ( 8 km)
Ceiling: 500 feet AGL
Clouds: overcast cloud deck at 500 feet AGL
Weather: BR  (mist)

METAR text: KAUS 181649Z 18007KT 1 1/2SM BR OVC005 16/14 A3001 RMK AO2 SFC VIS 5 DZE25 P0000
Conditions at: KAUS (AUSTIN , TX, US) observed 1649 UTC 18 January 2019
Temperature: 16.0°C (61°F)
Dewpoint: 14.0°C (57°F) [RH = 88%]
Pressure (altimeter): 30.01 inches Hg (1016.3 mb)
Winds: from the S (180 degrees) at 8 MPH (7 knots; 3.6 m/s)
Visibility: 1.50 miles (2.41 km)
Ceiling: 500 feet AGL
Clouds: overcast cloud deck at 500 feet AGL
Weather: BR  (mist)

METAR text: KAUS 181553Z 18008KT 1/4SM R17L/P6000FT -DZ BR OVC003 14/14 A3001 RMK AO2 SFC VIS 1 1/2 DZB22 SLP161 P0000 T01440139
Conditions at: KAUS (AUSTIN , TX, US) observed 1553 UTC 18 January 2019
Temperature: 14.4°C (58°F)
Dewpoint: 13.9°C (57°F) [RH = 97%]
Pressure (altimeter): 30.01 inches Hg (1016.3 mb)
[Sea-level pressure: 1016.1 mb]
Winds: from the S (180 degrees) at 9 MPH (8 knots; 4.1 m/s)
Visibility: 0.25 miles (0.40 km)
Ceiling: 300 feet AGL
Clouds: overcast cloud deck at 300 feet AGL
Weather: -DZ BR  (light drizzle, mist)

METAR text: KAUS 181453Z 18009KT 1/4SM R17L/2800V3500FT FG OVC002 14/13 A3001 RMK AO2 SFC VIS 1/2 SLP161 60000 T01390133 58001
Conditions at: KAUS (AUSTIN , TX, US) observed 1453 UTC 18 January 2019
Temperature: 13.9°C (57°F)
Dewpoint: 13.3°C (56°F) [RH = 96%]
Pressure (altimeter): 30.01 inches Hg (1016.3 mb)
[Sea-level pressure: 1016.1 mb]
Winds: from the S (180 degrees) at 10 MPH (9 knots; 4.6 m/s)
Visibility: 0.25 miles (0.40 km)
Ceiling: 200 feet AGL
Clouds: overcast cloud deck at 200 feet AGL
Weather: FG  (fog)

METAR text: KAUS 181435Z 18007KT 1/4SM R17L/4500VP6000FT BR OVC003 14/13 A3001 RMK AO2 SFC VIS 1 T01390133 $
Conditions at: KAUS (AUSTIN , TX, US) observed 1435 UTC 18 January 2019
Temperature: 13.9°C (57°F)
Dewpoint: 13.3°C (56°F) [RH = 96%]
Pressure (altimeter): 30.01 inches Hg (1016.3 mb)
Winds: from the S (180 degrees) at 8 MPH (7 knots; 3.6 m/s)
Visibility: 0.25 miles (0.40 km)
Ceiling: 300 feet AGL
Clouds: overcast cloud deck at 300 feet AGL
Weather: BR  (mist)
SOME DATA ABOVE MAY BE INACCURATE!!!
"$" is an indication the sensor requires maintenance

METAR text: KAUS 181423Z 17005KT 1/2SM R17L/P6000FT BR OVC003 14/13 A3001 RMK AO2 SFC VIS 2 T01390133 $
Conditions at: KAUS (AUSTIN , TX, US) observed 1423 UTC 18 January 2019
Temperature: 13.9°C (57°F)
Dewpoint: 13.3°C (56°F) [RH = 96%]
Pressure (altimeter): 30.01 inches Hg (1016.3 mb)
Winds: from the S (170 degrees) at 6 MPH (5 knots; 2.6 m/s)
Visibility: 0.50 miles (0.80 km)
Ceiling: 300 feet AGL
Clouds: overcast cloud deck at 300 feet AGL
Weather: BR  (mist)
SOME DATA ABOVE MAY BE INACCURATE!!!
"$" is an indication the sensor requires maintenance

METAR text: KAUS 181421Z 18005KT 1/2SM R17L/P6000FT BR OVC003 14/13 A3001 RMK AO2 SFC VIS 2 T01390133 $
Conditions at: KAUS (AUSTIN , TX, US) observed 1421 UTC 18 January 2019
Temperature: 13.9°C (57°F)
Dewpoint: 13.3°C (56°F) [RH = 96%]
Pressure (altimeter): 30.01 inches Hg (1016.3 mb)
Winds: from the S (180 degrees) at 6 MPH (5 knots; 2.6 m/s)
Visibility: 0.50 miles (0.80 km)
Ceiling: 300 feet AGL
Clouds: overcast cloud deck at 300 feet AGL
Weather: BR  (mist)
SOME DATA ABOVE MAY BE INACCURATE!!!
"$" is an indication the sensor requires maintenance

METAR text: KAUS 181353Z 20004KT 1/4SM R17L/P6000FT BR OVC003 14/13 A3001 RMK AO2 SFC VIS 1 1/2 DZE48 SLP161 P0000 T01390128 $
Conditions at: KAUS (AUSTIN , TX, US) observed 1353 UTC 18 January 2019
Temperature: 13.9°C (57°F)
Dewpoint: 12.8°C (55°F) [RH = 93%]
Pressure (altimeter): 30.01 inches Hg (1016.3 mb)
[Sea-level pressure: 1016.1 mb]
Winds: from the SSW (200 degrees) at 5 MPH (4 knots; 2.1 m/s)
Visibility: 0.25 miles (0.40 km)
Ceiling: 300 feet AGL
Clouds: overcast cloud deck at 300 feet AGL
Weather: BR  (mist)
SOME DATA ABOVE MAY BE INACCURATE!!!
"$" is an indication the sensor requires maintenance

METAR text: KAUS 181253Z 18005KT 1/4SM R17L/4000V6000FT -DZ FG OVC002 13/13 A3001 RMK AO2 SFC VIS 1/2 DZB32 SLP161 P0000 T01330128 $
Conditions at: KAUS (AUSTIN , TX, US) observed 1253 UTC 18 January 2019
Temperature: 13.3°C (56°F)
Dewpoint: 12.8°C (55°F) [RH = 97%]
Pressure (altimeter): 30.01 inches Hg (1016.3 mb)
[Sea-level pressure: 1016.1 mb]
Winds: from the S (180 degrees) at 6 MPH (5 knots; 2.6 m/s)
Visibility: 0.25 miles (0.40 km)
Ceiling: 200 feet AGL
Clouds: overcast cloud deck at 200 feet AGL
Weather: -DZ FG  (light drizzle, fog)
SOME DATA ABOVE MAY BE INACCURATE!!!
"$" is an indication the sensor requires maintenance

METAR text: KAUS 181153Z 19004KT 3/4SM R17L/P6000FT BR OVC002 13/12 A3001 RMK AO2 SFC VIS 1 1/2 SLP159 T01330122 10133 20083 58020 $
Conditions at: KAUS (AUSTIN , TX, US) observed 1153 UTC 18 January 2019
Temperature: 13.3°C (56°F)
Dewpoint: 12.2°C (54°F) [RH = 93%]
Pressure (altimeter): 30.01 inches Hg (1016.3 mb)
[Sea-level pressure: 1015.9 mb]
Winds: from the S (190 degrees) at 5 MPH (4 knots; 2.1 m/s)
Visibility: 0.75 miles (1.21 km)
Ceiling: 200 feet AGL
Clouds: overcast cloud deck at 200 feet AGL
Weather: BR  (mist)
SOME DATA ABOVE MAY BE INACCURATE!!!
"$" is an indication the sensor requires maintenance

METAR text: KAUS 181053Z 20005KT 1/4SM R17L/P6000FT BR OVC002 13/12 A3003 RMK AO2 SFC VIS 3/4 SLP166 T01280122 $
Conditions at: KAUS (AUSTIN , TX, US) observed 1053 UTC 18 January 2019
Temperature: 12.8°C (55°F)
Dewpoint: 12.2°C (54°F) [RH = 96%]
Pressure (altimeter): 30.03 inches Hg (1017.0 mb)
[Sea-level pressure: 1016.6 mb]
Winds: from the SSW (200 degrees) at 6 MPH (5 knots; 2.6 m/s)
Visibility: 0.25 miles (0.40 km)
Ceiling: 200 feet AGL
Clouds: overcast cloud deck at 200 feet AGL
Weather: BR  (mist)
SOME DATA ABOVE MAY BE INACCURATE!!!
"$" is an indication the sensor requires maintenance

METAR text: KAUS 180953Z 19006KT 1/8SM R17L/2000V2400FT FG VV001 12/12 A3006 RMK AO2 TWR VIS 1/4 SLP174 T01220117 $
Conditions at: KAUS (AUSTIN , TX, US) observed 0953 UTC 18 January 2019
Temperature: 12.2°C (54°F)
Dewpoint: 11.7°C (53°F) [RH = 97%]
Pressure (altimeter): 30.06 inches Hg (1018.0 mb)
[Sea-level pressure: 1017.4 mb]
Winds: from the S (190 degrees) at 7 MPH (6 knots; 3.1 m/s)
Visibility: 0.13 miles (0.21 km)
Ceiling: indefinite ceiling with vertical visibility of 100 feet AGL
Clouds: obscured sky
Weather: FG  (fog)
SOME DATA ABOVE MAY BE INACCURATE!!!
"$" is an indication the sensor requires maintenance

METAR text: KAUS 180946Z 18007KT 1/8SM R17L/1600V3000FT FG VV001 12/12 A3006 RMK AO2 TWR VIS 1/4 T01220117 $
Conditions at: KAUS (AUSTIN , TX, US) observed 0946 UTC 18 January 2019
Temperature: 12.2°C (54°F)
Dewpoint: 11.7°C (53°F) [RH = 97%]
Pressure (altimeter): 30.06 inches Hg (1018.0 mb)
Winds: from the S (180 degrees) at 8 MPH (7 knots; 3.6 m/s)
Visibility: 0.13 miles (0.21 km)
Ceiling: indefinite ceiling with vertical visibility of 100 feet AGL
Clouds: obscured sky
Weather: FG  (fog)
SOME DATA ABOVE MAY BE INACCURATE!!!
"$" is an indication the sensor requires maintenance

METAR text: KAUS 180853Z 17003KT 1/8SM R17L/1800V2200FT FG VV001 12/12 A3007 RMK AO2 TWR VIS 1/4 SLP178 T01220117 58016 $
Conditions at: KAUS (AUSTIN , TX, US) observed 0853 UTC 18 January 2019
Temperature: 12.2°C (54°F)
Dewpoint: 11.7°C (53°F) [RH = 97%]
Pressure (altimeter): 30.07 inches Hg (1018.4 mb)
[Sea-level pressure: 1017.8 mb]
Winds: from the S (170 degrees) at 3 MPH (3 knots; 1.5 m/s)
Visibility: 0.13 miles (0.21 km)
Ceiling: indefinite ceiling with vertical visibility of 100 feet AGL
Clouds: obscured sky
Weather: FG  (fog)
SOME DATA ABOVE MAY BE INACCURATE!!!
"$" is an indication the sensor requires maintenance

METAR text: KAUS 180801Z 00000KT 1/4SM R17L/4000VP6000FT FG OVC001 12/12 A3009 RMK AO2 SFC VIS 1/2 T01220117 $
Conditions at: KAUS (AUSTIN , TX, US) observed 0801 UTC 18 January 2019
Temperature: 12.2°C (54°F)
Dewpoint: 11.7°C (53°F) [RH = 97%]
Pressure (altimeter): 30.09 inches Hg (1019.0 mb)
Winds: calm
Visibility: 0.25 miles (0.40 km)
Ceiling: 100 feet AGL
Clouds: overcast cloud deck at 100 feet AGL
Weather: FG  (fog)
SOME DATA ABOVE MAY BE INACCURATE!!!
"$" is an indication the sensor requires maintenance

METAR text: KAUS 180753Z 22003KT 1/2SM R17L/P6000FT BR OVC001 12/12 A3009 RMK AO2 SFC VIS 3/4 SLP186 T01220117
Conditions at: KAUS (AUSTIN , TX, US) observed 0753 UTC 18 January 2019
Temperature: 12.2°C (54°F)
Dewpoint: 11.7°C (53°F) [RH = 97%]
Pressure (altimeter): 30.09 inches Hg (1019.0 mb)
[Sea-level pressure: 1018.6 mb]
Winds: from the SW (220 degrees) at 3 MPH (3 knots; 1.5 m/s)
Visibility: 0.50 miles (0.80 km)
Ceiling: 100 feet AGL
Clouds: overcast cloud deck at 100 feet AGL
Weather: BR  (mist)

METAR text: KAUS 180738Z 20005KT 1/2SM R17L/P6000FT BR OVC002 13/12 A3010 RMK AO2 SFC VIS 2 T01280117
Conditions at: KAUS (AUSTIN , TX, US) observed 0738 UTC 18 January 2019
Temperature: 12.8°C (55°F)
Dewpoint: 11.7°C (53°F) [RH = 93%]
Pressure (altimeter): 30.10 inches Hg (1019.4 mb)
Winds: from the SSW (200 degrees) at 6 MPH (5 knots; 2.6 m/s)
Visibility: 0.50 miles (0.80 km)
Ceiling: 200 feet AGL
Clouds: overcast cloud deck at 200 feet AGL
Weather: BR  (mist)

METAR text: KAUS 180708Z 00000KT 5SM BR BKN004 11/09 A3011 RMK AO2 T01060094
Conditions at: KAUS (AUSTIN , TX, US) observed 0708 UTC 18 January 2019
Temperature: 10.6°C (51°F)
Dewpoint: 9.4°C (49°F) [RH = 92%]
Pressure (altimeter): 30.11 inches Hg (1019.7 mb)
Winds: calm
Visibility: 5 miles ( 8 km)
Ceiling: 400 feet AGL
Clouds: broken clouds at 400 feet AGL
Weather: BR  (mist)

METAR text: KAUS 180653Z 00000KT 9SM SCT006 BKN250 10/09 A3011 RMK AO2 SLP193 T01000089
Conditions at: KAUS (AUSTIN , TX, US) observed 0653 UTC 18 January 2019
Temperature: 10.0°C (50°F)
Dewpoint: 8.9°C (48°F) [RH = 93%]
Pressure (altimeter): 30.11 inches Hg (1019.7 mb)
[Sea-level pressure: 1019.3 mb]
Winds: calm
Visibility: 9 miles (14 km)
Ceiling: 25000 feet AGL
Clouds: scattered clouds at 600 feet AGL
broken clouds at 25000 feet AGL
Weather: no significant weather observed at this time

METAR text: KAUS 180646Z 00000KT 9SM SCT009 BKN250 11/09 A3011 RMK AO2 T01060094
Conditions at: KAUS (AUSTIN , TX, US) observed 0646 UTC 18 January 2019
Temperature: 10.6°C (51°F)
Dewpoint: 9.4°C (49°F) [RH = 92%]
Pressure (altimeter): 30.11 inches Hg (1019.7 mb)
Winds: calm
Visibility: 9 miles (14 km)
Ceiling: 25000 feet AGL
Clouds: scattered clouds at 900 feet AGL
broken clouds at 25000 feet AGL
Weather: no significant weather observed at this time

METAR text: KAUS 180553Z 00000KT 10SM SCT250 09/08 A3012 RMK AO2 SLP198 T00890083 10183 20083 402560083 50002
Conditions at: KAUS (AUSTIN , TX, US) observed 0553 UTC 18 January 2019
Temperature: 8.9°C (48°F)
Dewpoint: 8.3°C (47°F) [RH = 96%]
Pressure (altimeter): 30.12 inches Hg (1020.1 mb)
[Sea-level pressure: 1019.8 mb]
Winds: calm
Visibility: 10 or more miles (16+ km)
Ceiling: at least 12,000 feet AGL
Clouds: scattered clouds at 25000 feet AGL
Weather: no significant weather observed at this time

METAR text: KAUS 180453Z 00000KT 10SM FEW200 SCT250 10/09 A3012 RMK AO2 SLP200 T01000089
Conditions at: KAUS (AUSTIN , TX, US) observed 0453 UTC 18 January 2019
Temperature: 10.0°C (50°F)
Dewpoint: 8.9°C (48°F) [RH = 93%]
Pressure (altimeter): 30.12 inches Hg (1020.1 mb)
[Sea-level pressure: 1020.0 mb]
Winds: calm
Visibility: 10 or more miles (16+ km)
Ceiling: at least 12,000 feet AGL
Clouds: few clouds at 20000 feet AGL
scattered clouds at 25000 feet AGL
Weather: no significant weather observed at this time

METAR text: KAUS 180353Z 00000KT 10SM FEW200 10/08 A3011 RMK AO2 SLP198 T01000083
Conditions at: KAUS (AUSTIN , TX, US) observed 0353 UTC 18 January 2019
Temperature: 10.0°C (50°F)
Dewpoint: 8.3°C (47°F) [RH = 89%]
Pressure (altimeter): 30.11 inches Hg (1019.7 mb)
[Sea-level pressure: 1019.8 mb]
Winds: calm
Visibility: 10 or more miles (16+ km)
Ceiling: at least 12,000 feet AGL
Clouds: few clouds at 20000 feet AGL
Weather: no significant weather observed at this time

METAR text: KAUS 180253Z 00000KT 10SM FEW200 12/09 A3011 RMK AO2 SLP196 T01170094 51008
Conditions at: KAUS (AUSTIN , TX, US) observed 0253 UTC 18 January 2019
Temperature: 11.7°C (53°F)
Dewpoint: 9.4°C (49°F) [RH = 86%]
Pressure (altimeter): 30.11 inches Hg (1019.7 mb)
[Sea-level pressure: 1019.6 mb]
Winds: calm
Visibility: 10 or more miles (16+ km)
Ceiling: at least 12,000 feet AGL
Clouds: few clouds at 20000 feet AGL
Weather: no significant weather observed at this time

METAR text: KAUS 180153Z 00000KT 10SM FEW200 SCT300 13/10 A3011 RMK AO2 SLP195 T01280100
Conditions at: KAUS (AUSTIN , TX, US) observed 0153 UTC 18 January 2019
Temperature: 12.8°C (55°F)
Dewpoint: 10.0°C (50°F) [RH = 83%]
Pressure (altimeter): 30.11 inches Hg (1019.7 mb)
[Sea-level pressure: 1019.5 mb]
Winds: calm
Visibility: 10 or more miles (16+ km)
Ceiling: at least 12,000 feet AGL
Clouds: few clouds at 20000 feet AGL
scattered clouds at 30000 feet AGL
Weather: no significant weather observed at this time

METAR text: KAUS 180053Z 19003KT 10SM SCT200 SCT300 16/11 A3011 RMK AO2 SLP192 T01610106
Conditions at: KAUS (AUSTIN , TX, US) observed 0053 UTC 18 January 2019
Temperature: 16.1°C (61°F)
Dewpoint: 10.6°C (51°F) [RH = 70%]
Pressure (altimeter): 30.11 inches Hg (1019.7 mb)
[Sea-level pressure: 1019.2 mb]
Winds: from the S (190 degrees) at 3 MPH (3 knots; 1.5 m/s)
Visibility: 10 or more miles (16+ km)
Ceiling: at least 12,000 feet AGL
Clouds: scattered clouds at 20000 feet AGL
scattered clouds at 30000 feet AGL
Weather: no significant weather observed at this time

Forecast for: KAUS (AUSTIN , TX, US)
Text: KAUS 191123Z 1912/2018 32025G35KT P6SM FEW100
Forecast period: 1200 UTC 19 January 2019 to 0100 UTC 20 January 2019
Forecast type: FROM: standard forecast or significant change
Winds: from the NW (320 degrees) at 29 MPH (25 knots; 12.9 m/s)
gusting to 40 MPH (35 knots; 18.0 m/s)
Visibility: 6 or more miles 10+ km)
Ceiling: at least 12,000 feet AGL
Clouds: few clouds at 10000 feet AGL
Weather: no significant weather forecast for this period
Text: FM200100 34010KT P6SM SKC
Forecast period: 0100 to 1800 UTC 20 January 2019
Forecast type: FROM: standard forecast or significant change
Winds: from the NNW (340 degrees) at 12 MPH (10 knots; 5.1 m/s)
Visibility: 6 or more miles 10+ km)
Clouds: clear skies
Weather: no significant weather forecast for this period